<?xml version='1.0' encoding='UTF-8' standalone='yes' ?>
<gpx xmlns="http://www.topografix.com/GPX/1/1" xmlns:geotracker="http://ilyabogdanovich.com/gpx/extensions/geotracker" xmlns:xsi="http://www.w3.org/2001/XMLSchema-instance" xsi:schemaLocation="http://www.topografix.com/GPX/1/1 http://www.topografix.com/GPX/1/1/gpx.xsd" version="1.1" creator="Enregistré par Geo Tracker pour Android de Ilya Bogdanovich">
  <metadata>
    <name>Combleux 21,93km Autour de Bou</name>
    <link href="https://www.visorando.com/randonnee-autour-de-bou-2/" />
    <time>2025-06-12T14:51:46Z</time>
  </metadata>
  <wpt lat="47.900646" lon="1.983878">
    <ele>97</ele>
    <time>2025-06-12T14:51:46Z</time>
    <name>Parking au bord du</name>
  </wpt>
  <wpt lat="47.897359" lon="1.990273">
    <ele>97</ele>
    <time>2025-06-12T15:03:54Z</time>
    <name>Ruisseau de déchargement du Canal d'Orléans</name>
  </wpt>
  <wpt lat="47.897359" lon="1.990273">
    <ele>97</ele>
    <time>2025-06-12T15:03:54Z</time>
    <name>Ruisseau de déchargement du Canal d'Orléans</name>
  </wpt>
  <wpt lat="47.895781" lon="1.992966">
    <ele>97</ele>
    <time>2025-06-12T15:12:07Z</time>
    <name>Longer la</name>
  </wpt>
  <wpt lat="47.895781" lon="1.992966">
    <ele>97</ele>
    <time>2025-06-12T15:12:07Z</time>
    <name>Longer la</name>
  </wpt>
  <wpt lat="47.885881" lon="2.027388">
    <ele>99</ele>
    <time>2025-06-12T16:06:03Z</time>
    <name>GR</name>
  </wpt>
  <wpt lat="47.885881" lon="2.027388">
    <ele>99</ele>
    <time>2025-06-12T16:06:03Z</time>
    <name>GR</name>
  </wpt>
  <wpt lat="47.873401" lon="2.076973">
    <ele>104</ele>
    <time>2025-06-12T18:22:22Z</time>
    <name>Direction Mardié</name>
  </wpt>
  <wpt lat="47.873401" lon="2.076973">
    <ele>104</ele>
    <time>2025-06-12T18:22:22Z</time>
    <name>Direction Mardié</name>
  </wpt>
  <wpt lat="47.885896" lon="2.05521">
    <ele>109</ele>
    <time>2025-06-12T19:16:42Z</time>
    <name>À droite</name>
  </wpt>
  <wpt lat="47.885896" lon="2.05521">
    <ele>109</ele>
    <time>2025-06-12T19:16:42Z</time>
    <name>À droite</name>
  </wpt>
  <wpt lat="47.89001" lon="2.050394">
    <ele>107</ele>
    <time>2025-06-12T19:31:35Z</time>
    <name>À gauche</name>
  </wpt>
  <wpt lat="47.89001" lon="2.050394">
    <ele>107</ele>
    <time>2025-06-12T19:31:35Z</time>
    <name>À gauche</name>
  </wpt>
  <wpt lat="47.892247" lon="2.052545">
    <ele>102</ele>
    <time>2025-06-12T19:52:28Z</time>
    <name>À gauche</name>
  </wpt>
  <wpt lat="47.892247" lon="2.052545">
    <ele>102</ele>
    <time>2025-06-12T19:52:28Z</time>
    <name>À gauche</name>
  </wpt>
  <wpt lat="47.9007" lon="1.983943">
    <ele>98</ele>
    <time>2025-06-12T21:27:44Z</time>
    <name>Parking en bord de canal</name>
  </wpt>
  <wpt lat="47.9007" lon="1.983943">
    <ele>98</ele>
    <time>2025-06-12T21:27:44Z</time>
    <name>Parking en bord de canal</name>
  </wpt>
  <trk>
    <name>Combleux 21,93km Autour de Bou</name>
    <extensions>
      <geotracker:meta>
        <geotracker:length>21926.91</geotracker:length>
        <geotracker:duration>23758000</geotracker:duration>
        <geotracker:creationtime>2025-06-12T14:51:46Z</geotracker:creationtime>
        <geotracker:activity>0</geotracker:activity>
      </geotracker:meta>
    </extensions>
    <trkseg>
      <trkpt lat="47.900646" lon="1.983878">
        <ele>97</ele>
        <time>2025-06-12T14:51:46Z</time>
      </trkpt>
      <trkpt lat="47.900341" lon="1.983682">
        <ele>99</ele>
        <time>2025-06-12T14:52:45Z</time>
      </trkpt>
      <trkpt lat="47.899415" lon="1.984556">
        <ele>99</ele>
        <time>2025-06-12T14:54:50Z</time>
      </trkpt>
      <trkpt lat="47.899161" lon="1.984993">
        <ele>99</ele>
        <time>2025-06-12T14:55:34Z</time>
      </trkpt>
      <trkpt lat="47.899051" lon="1.985457">
        <ele>99</ele>
        <time>2025-06-12T14:56:12Z</time>
      </trkpt>
      <trkpt lat="47.898595" lon="1.985438">
        <ele>98</ele>
        <time>2025-06-12T14:57:04Z</time>
      </trkpt>
      <trkpt lat="47.898411" lon="1.985886">
        <ele>98</ele>
        <time>2025-06-12T14:57:44Z</time>
      </trkpt>
      <trkpt lat="47.898336" lon="1.986282">
        <ele>98</ele>
        <time>2025-06-12T14:58:16Z</time>
      </trkpt>
      <trkpt lat="47.89813" lon="1.987231">
        <ele>97</ele>
        <time>2025-06-12T14:59:33Z</time>
      </trkpt>
      <trkpt lat="47.897784" lon="1.988671">
        <ele>98</ele>
        <time>2025-06-12T15:01:41Z</time>
      </trkpt>
      <trkpt lat="47.897602" lon="1.989535">
        <ele>97</ele>
        <time>2025-06-12T15:02:51Z</time>
      </trkpt>
      <trkpt lat="47.897359" lon="1.990273">
        <ele>97</ele>
        <time>2025-06-12T15:03:54Z</time>
      </trkpt>
      <trkpt lat="47.897812" lon="1.990394">
        <ele>98</ele>
        <time>2025-06-12T15:04:57Z</time>
      </trkpt>
      <trkpt lat="47.898121" lon="1.990751">
        <ele>96</ele>
        <time>2025-06-12T15:05:42Z</time>
      </trkpt>
      <trkpt lat="47.898081" lon="1.990973">
        <ele>98</ele>
        <time>2025-06-12T15:06:20Z</time>
      </trkpt>
      <trkpt lat="47.897612" lon="1.990772">
        <ele>96</ele>
        <time>2025-06-12T15:07:16Z</time>
      </trkpt>
      <trkpt lat="47.897382" lon="1.99071">
        <ele>97</ele>
        <time>2025-06-12T15:07:53Z</time>
      </trkpt>
      <trkpt lat="47.896954" lon="1.991327">
        <ele>97</ele>
        <time>2025-06-12T15:09:01Z</time>
      </trkpt>
      <trkpt lat="47.896426" lon="1.99212">
        <ele>97</ele>
        <time>2025-06-12T15:10:27Z</time>
      </trkpt>
      <trkpt lat="47.896068" lon="1.992765">
        <ele>97</ele>
        <time>2025-06-12T15:11:31Z</time>
      </trkpt>
      <trkpt lat="47.895781" lon="1.992966">
        <ele>97</ele>
        <time>2025-06-12T15:12:07Z</time>
      </trkpt>
      <trkpt lat="47.895151" lon="1.993636">
        <ele>96</ele>
        <time>2025-06-12T15:13:36Z</time>
      </trkpt>
      <trkpt lat="47.894899" lon="1.994072">
        <ele>97</ele>
        <time>2025-06-12T15:14:30Z</time>
      </trkpt>
      <trkpt lat="47.894503" lon="1.994271">
        <ele>98</ele>
        <time>2025-06-12T15:15:28Z</time>
      </trkpt>
      <trkpt lat="47.893748" lon="1.995192">
        <ele>98</ele>
        <time>2025-06-12T15:17:20Z</time>
      </trkpt>
      <trkpt lat="47.893343" lon="1.995784">
        <ele>98</ele>
        <time>2025-06-12T15:18:25Z</time>
      </trkpt>
      <trkpt lat="47.893006" lon="1.995936">
        <ele>96</ele>
        <time>2025-06-12T15:19:05Z</time>
      </trkpt>
      <trkpt lat="47.892867" lon="1.996166">
        <ele>97</ele>
        <time>2025-06-12T15:19:39Z</time>
      </trkpt>
      <trkpt lat="47.892043" lon="1.997603">
        <ele>97</ele>
        <time>2025-06-12T15:22:04Z</time>
      </trkpt>
      <trkpt lat="47.891541" lon="1.998308">
        <ele>97</ele>
        <time>2025-06-12T15:23:23Z</time>
      </trkpt>
      <trkpt lat="47.891195" lon="1.998732">
        <ele>98</ele>
        <time>2025-06-12T15:24:25Z</time>
      </trkpt>
      <trkpt lat="47.890976" lon="1.999157">
        <ele>98</ele>
        <time>2025-06-12T15:25:06Z</time>
      </trkpt>
      <trkpt lat="47.890492" lon="1.999901">
        <ele>98</ele>
        <time>2025-06-12T15:26:26Z</time>
      </trkpt>
      <trkpt lat="47.890277" lon="2.000907">
        <ele>98</ele>
        <time>2025-06-12T15:27:47Z</time>
      </trkpt>
      <trkpt lat="47.889768" lon="2.002754">
        <ele>98</ele>
        <time>2025-06-12T15:30:20Z</time>
      </trkpt>
      <trkpt lat="47.889151" lon="2.004575">
        <ele>99</ele>
        <time>2025-06-12T15:33:07Z</time>
      </trkpt>
      <trkpt lat="47.889063" lon="2.005397">
        <ele>99</ele>
        <time>2025-06-12T15:34:11Z</time>
      </trkpt>
      <trkpt lat="47.8891" lon="2.006167">
        <ele>99</ele>
        <time>2025-06-12T15:35:10Z</time>
      </trkpt>
      <trkpt lat="47.888881" lon="2.007042">
        <ele>100</ele>
        <time>2025-06-12T15:36:32Z</time>
      </trkpt>
      <trkpt lat="47.888877" lon="2.007406">
        <ele>99</ele>
        <time>2025-06-12T15:37:00Z</time>
      </trkpt>
      <trkpt lat="47.888963" lon="2.007795">
        <ele>100</ele>
        <time>2025-06-12T15:37:42Z</time>
      </trkpt>
      <trkpt lat="47.889117" lon="2.009293">
        <ele>100</ele>
        <time>2025-06-12T15:39:38Z</time>
      </trkpt>
      <trkpt lat="47.889262" lon="2.009728">
        <ele>99</ele>
        <time>2025-06-12T15:40:15Z</time>
      </trkpt>
      <trkpt lat="47.889334" lon="2.010259">
        <ele>98</ele>
        <time>2025-06-12T15:40:57Z</time>
      </trkpt>
      <trkpt lat="47.889334" lon="2.010764">
        <ele>97</ele>
        <time>2025-06-12T15:41:36Z</time>
      </trkpt>
      <trkpt lat="47.889281" lon="2.012002">
        <ele>99</ele>
        <time>2025-06-12T15:43:32Z</time>
      </trkpt>
      <trkpt lat="47.889106" lon="2.012224">
        <ele>98</ele>
        <time>2025-06-12T15:43:58Z</time>
      </trkpt>
      <trkpt lat="47.888967" lon="2.01255">
        <ele>95</ele>
        <time>2025-06-12T15:44:28Z</time>
      </trkpt>
      <trkpt lat="47.88894" lon="2.013244">
        <ele>97</ele>
        <time>2025-06-12T15:45:42Z</time>
      </trkpt>
      <trkpt lat="47.888962" lon="2.013918">
        <ele>98</ele>
        <time>2025-06-12T15:46:44Z</time>
      </trkpt>
      <trkpt lat="47.888992" lon="2.014738">
        <ele>98</ele>
        <time>2025-06-12T15:47:47Z</time>
      </trkpt>
      <trkpt lat="47.889021" lon="2.015453">
        <ele>98</ele>
        <time>2025-06-12T15:48:42Z</time>
      </trkpt>
      <trkpt lat="47.889008" lon="2.016317">
        <ele>99</ele>
        <time>2025-06-12T15:49:59Z</time>
      </trkpt>
      <trkpt lat="47.888886" lon="2.016834">
        <ele>99</ele>
        <time>2025-06-12T15:50:41Z</time>
      </trkpt>
      <trkpt lat="47.888691" lon="2.017455">
        <ele>99</ele>
        <time>2025-06-12T15:51:34Z</time>
      </trkpt>
      <trkpt lat="47.888107" lon="2.018372">
        <ele>99</ele>
        <time>2025-06-12T15:53:11Z</time>
      </trkpt>
      <trkpt lat="47.887576" lon="2.019393">
        <ele>100</ele>
        <time>2025-06-12T15:55:00Z</time>
      </trkpt>
      <trkpt lat="47.887266" lon="2.020361">
        <ele>99</ele>
        <time>2025-06-12T15:56:22Z</time>
      </trkpt>
      <trkpt lat="47.887064" lon="2.021328">
        <ele>99</ele>
        <time>2025-06-12T15:57:40Z</time>
      </trkpt>
      <trkpt lat="47.8869" lon="2.022608">
        <ele>99</ele>
        <time>2025-06-12T15:59:20Z</time>
      </trkpt>
      <trkpt lat="47.886825" lon="2.023914">
        <ele>99</ele>
        <time>2025-06-12T16:01:01Z</time>
      </trkpt>
      <trkpt lat="47.886663" lon="2.02503">
        <ele>98</ele>
        <time>2025-06-12T16:02:29Z</time>
      </trkpt>
      <trkpt lat="47.886392" lon="2.026094">
        <ele>99</ele>
        <time>2025-06-12T16:04:07Z</time>
      </trkpt>
      <trkpt lat="47.886162" lon="2.026731">
        <ele>99</ele>
        <time>2025-06-12T16:05:03Z</time>
      </trkpt>
      <trkpt lat="47.885881" lon="2.027388">
        <ele>99</ele>
        <time>2025-06-12T16:06:03Z</time>
      </trkpt>
      <trkpt lat="47.885654" lon="2.028098">
        <ele>99</ele>
        <time>2025-06-12T16:07:03Z</time>
      </trkpt>
      <trkpt lat="47.885463" lon="2.028155">
        <ele>99</ele>
        <time>2025-06-12T16:07:25Z</time>
      </trkpt>
      <trkpt lat="47.885133" lon="2.028797">
        <ele>100</ele>
        <time>2025-06-12T16:08:37Z</time>
      </trkpt>
      <trkpt lat="47.884714" lon="2.029386">
        <ele>100</ele>
        <time>2025-06-12T16:09:43Z</time>
      </trkpt>
      <trkpt lat="47.884406" lon="2.029683">
        <ele>100</ele>
        <time>2025-06-12T16:10:25Z</time>
      </trkpt>
      <trkpt lat="47.883486" lon="2.030253">
        <ele>102</ele>
        <time>2025-06-12T16:12:40Z</time>
      </trkpt>
      <trkpt lat="47.882876" lon="2.031236">
        <ele>102</ele>
        <time>2025-06-12T16:14:23Z</time>
      </trkpt>
      <trkpt lat="47.882175" lon="2.032193">
        <ele>102</ele>
        <time>2025-06-12T16:16:12Z</time>
      </trkpt>
      <trkpt lat="47.881259" lon="2.03325">
        <ele>102</ele>
        <time>2025-06-12T16:18:25Z</time>
      </trkpt>
      <trkpt lat="47.880307" lon="2.034071">
        <ele>102</ele>
        <time>2025-06-12T16:20:31Z</time>
      </trkpt>
      <trkpt lat="47.87951" lon="2.034902">
        <ele>102</ele>
        <time>2025-06-12T16:22:22Z</time>
      </trkpt>
      <trkpt lat="47.878587" lon="2.035447">
        <ele>102</ele>
        <time>2025-06-12T16:24:16Z</time>
      </trkpt>
      <trkpt lat="47.877641" lon="2.035787">
        <ele>102</ele>
        <time>2025-06-12T16:26:07Z</time>
      </trkpt>
      <trkpt lat="47.877167" lon="2.035788">
        <ele>102</ele>
        <time>2025-06-12T16:27:01Z</time>
      </trkpt>
      <trkpt lat="47.876362" lon="2.035684">
        <ele>103</ele>
        <time>2025-06-12T16:28:44Z</time>
      </trkpt>
      <trkpt lat="47.875415" lon="2.036012">
        <ele>102</ele>
        <time>2025-06-12T16:30:35Z</time>
      </trkpt>
      <trkpt lat="47.874999" lon="2.035927">
        <ele>99</ele>
        <time>2025-06-12T16:31:23Z</time>
      </trkpt>
      <trkpt lat="47.874714" lon="2.035735">
        <ele>97</ele>
        <time>2025-06-12T16:31:59Z</time>
      </trkpt>
      <trkpt lat="47.874376" lon="2.035699">
        <ele>97</ele>
        <time>2025-06-12T16:32:38Z</time>
      </trkpt>
      <trkpt lat="47.872832" lon="2.035687">
        <ele>98</ele>
        <time>2025-06-12T16:35:45Z</time>
      </trkpt>
      <trkpt lat="47.872247" lon="2.035648">
        <ele>99</ele>
        <time>2025-06-12T16:37:02Z</time>
      </trkpt>
      <trkpt lat="47.871735" lon="2.0354">
        <ele>96</ele>
        <time>2025-06-12T16:38:04Z</time>
      </trkpt>
      <trkpt lat="47.871186" lon="2.035243">
        <ele>98</ele>
        <time>2025-06-12T16:39:29Z</time>
      </trkpt>
      <trkpt lat="47.870786" lon="2.035099">
        <ele>99</ele>
        <time>2025-06-12T16:40:26Z</time>
      </trkpt>
      <trkpt lat="47.870682" lon="2.034943">
        <ele>99</ele>
        <time>2025-06-12T16:40:43Z</time>
      </trkpt>
      <trkpt lat="47.869742" lon="2.034708">
        <ele>98</ele>
        <time>2025-06-12T16:42:32Z</time>
      </trkpt>
      <trkpt lat="47.869254" lon="2.034538">
        <ele>98</ele>
        <time>2025-06-12T16:43:29Z</time>
      </trkpt>
      <trkpt lat="47.86882" lon="2.034525">
        <ele>99</ele>
        <time>2025-06-12T16:44:29Z</time>
      </trkpt>
      <trkpt lat="47.868575" lon="2.034442">
        <ele>99</ele>
        <time>2025-06-12T16:44:58Z</time>
      </trkpt>
      <trkpt lat="47.868061" lon="2.034098">
        <ele>99</ele>
        <time>2025-06-12T16:46:03Z</time>
      </trkpt>
      <trkpt lat="47.867086" lon="2.033671">
        <ele>99</ele>
        <time>2025-06-12T16:47:59Z</time>
      </trkpt>
      <trkpt lat="47.866248" lon="2.033457">
        <ele>100</ele>
        <time>2025-06-12T16:49:47Z</time>
      </trkpt>
      <trkpt lat="47.865608" lon="2.033322">
        <ele>100</ele>
        <time>2025-06-12T16:51:01Z</time>
      </trkpt>
      <trkpt lat="47.865265" lon="2.033137">
        <ele>99</ele>
        <time>2025-06-12T16:51:43Z</time>
      </trkpt>
      <trkpt lat="47.864563" lon="2.032964">
        <ele>98</ele>
        <time>2025-06-12T16:53:04Z</time>
      </trkpt>
      <trkpt lat="47.863377" lon="2.033041">
        <ele>99</ele>
        <time>2025-06-12T16:55:30Z</time>
      </trkpt>
      <trkpt lat="47.863161" lon="2.033014">
        <ele>99</ele>
        <time>2025-06-12T16:55:55Z</time>
      </trkpt>
      <trkpt lat="47.862909" lon="2.033092">
        <ele>99</ele>
        <time>2025-06-12T16:56:24Z</time>
      </trkpt>
      <trkpt lat="47.862563" lon="2.033056">
        <ele>98</ele>
        <time>2025-06-12T16:57:04Z</time>
      </trkpt>
      <trkpt lat="47.862217" lon="2.033333">
        <ele>100</ele>
        <time>2025-06-12T16:58:10Z</time>
      </trkpt>
      <trkpt lat="47.861912" lon="2.033271">
        <ele>99</ele>
        <time>2025-06-12T16:58:45Z</time>
      </trkpt>
      <trkpt lat="47.861642" lon="2.033365">
        <ele>100</ele>
        <time>2025-06-12T16:59:27Z</time>
      </trkpt>
      <trkpt lat="47.861107" lon="2.033528">
        <ele>100</ele>
        <time>2025-06-12T17:00:30Z</time>
      </trkpt>
      <trkpt lat="47.860876" lon="2.033518">
        <ele>99</ele>
        <time>2025-06-12T17:00:56Z</time>
      </trkpt>
      <trkpt lat="47.860329" lon="2.033709">
        <ele>100</ele>
        <time>2025-06-12T17:02:11Z</time>
      </trkpt>
      <trkpt lat="47.860096" lon="2.033939">
        <ele>100</ele>
        <time>2025-06-12T17:02:43Z</time>
      </trkpt>
      <trkpt lat="47.859937" lon="2.034097">
        <ele>100</ele>
        <time>2025-06-12T17:03:05Z</time>
      </trkpt>
      <trkpt lat="47.859777" lon="2.03436">
        <ele>99</ele>
        <time>2025-06-12T17:03:32Z</time>
      </trkpt>
      <trkpt lat="47.859584" lon="2.03435">
        <ele>99</ele>
        <time>2025-06-12T17:03:54Z</time>
      </trkpt>
      <trkpt lat="47.859247" lon="2.034472">
        <ele>100</ele>
        <time>2025-06-12T17:04:44Z</time>
      </trkpt>
      <trkpt lat="47.859087" lon="2.034605">
        <ele>101</ele>
        <time>2025-06-12T17:05:15Z</time>
      </trkpt>
      <trkpt lat="47.858653" lon="2.034828">
        <ele>100</ele>
        <time>2025-06-12T17:06:08Z</time>
      </trkpt>
      <trkpt lat="47.858463" lon="2.035005">
        <ele>100</ele>
        <time>2025-06-12T17:06:34Z</time>
      </trkpt>
      <trkpt lat="47.858434" lon="2.035182">
        <ele>100</ele>
        <time>2025-06-12T17:06:48Z</time>
      </trkpt>
      <trkpt lat="47.857495" lon="2.036008">
        <ele>98</ele>
        <time>2025-06-12T17:08:53Z</time>
      </trkpt>
      <trkpt lat="47.857106" lon="2.03688">
        <ele>98</ele>
        <time>2025-06-12T17:10:13Z</time>
      </trkpt>
      <trkpt lat="47.856902" lon="2.037499">
        <ele>99</ele>
        <time>2025-06-12T17:11:16Z</time>
      </trkpt>
      <trkpt lat="47.856716" lon="2.037831">
        <ele>98</ele>
        <time>2025-06-12T17:11:49Z</time>
      </trkpt>
      <trkpt lat="47.85662" lon="2.038907">
        <ele>98</ele>
        <time>2025-06-12T17:13:12Z</time>
      </trkpt>
      <trkpt lat="47.856641" lon="2.039734">
        <ele>98</ele>
        <time>2025-06-12T17:14:16Z</time>
      </trkpt>
      <trkpt lat="47.856597" lon="2.039965">
        <ele>97</ele>
        <time>2025-06-12T17:14:34Z</time>
      </trkpt>
      <trkpt lat="47.856715" lon="2.041358">
        <ele>98</ele>
        <time>2025-06-12T17:16:32Z</time>
      </trkpt>
      <trkpt lat="47.856907" lon="2.041836">
        <ele>99</ele>
        <time>2025-06-12T17:17:25Z</time>
      </trkpt>
      <trkpt lat="47.857012" lon="2.042284">
        <ele>96</ele>
        <time>2025-06-12T17:18:01Z</time>
      </trkpt>
      <trkpt lat="47.857307" lon="2.042925">
        <ele>100</ele>
        <time>2025-06-12T17:19:42Z</time>
      </trkpt>
      <trkpt lat="47.857427" lon="2.043207">
        <ele>100</ele>
        <time>2025-06-12T17:20:08Z</time>
      </trkpt>
      <trkpt lat="47.857533" lon="2.043478">
        <ele>100</ele>
        <time>2025-06-12T17:20:32Z</time>
      </trkpt>
      <trkpt lat="47.85771" lon="2.043723">
        <ele>100</ele>
        <time>2025-06-12T17:21:00Z</time>
      </trkpt>
      <trkpt lat="47.857709" lon="2.043933">
        <ele>99</ele>
        <time>2025-06-12T17:21:16Z</time>
      </trkpt>
      <trkpt lat="47.857969" lon="2.044468">
        <ele>99</ele>
        <time>2025-06-12T17:22:07Z</time>
      </trkpt>
      <trkpt lat="47.858" lon="2.044709">
        <ele>98</ele>
        <time>2025-06-12T17:22:26Z</time>
      </trkpt>
      <trkpt lat="47.858292" lon="2.04529">
        <ele>100</ele>
        <time>2025-06-12T17:23:42Z</time>
      </trkpt>
      <trkpt lat="47.858384" lon="2.04561">
        <ele>98</ele>
        <time>2025-06-12T17:24:09Z</time>
      </trkpt>
      <trkpt lat="47.858744" lon="2.046305">
        <ele>100</ele>
        <time>2025-06-12T17:25:37Z</time>
      </trkpt>
      <trkpt lat="47.859077" lon="2.046914">
        <ele>99</ele>
        <time>2025-06-12T17:26:37Z</time>
      </trkpt>
      <trkpt lat="47.85918" lon="2.047244">
        <ele>98</ele>
        <time>2025-06-12T17:27:05Z</time>
      </trkpt>
      <trkpt lat="47.859347" lon="2.047353">
        <ele>100</ele>
        <time>2025-06-12T17:27:46Z</time>
      </trkpt>
      <trkpt lat="47.859494" lon="2.047774">
        <ele>98</ele>
        <time>2025-06-12T17:28:22Z</time>
      </trkpt>
      <trkpt lat="47.859648" lon="2.048167">
        <ele>97</ele>
        <time>2025-06-12T17:28:57Z</time>
      </trkpt>
      <trkpt lat="47.859896" lon="2.048312">
        <ele>100</ele>
        <time>2025-06-12T17:29:58Z</time>
      </trkpt>
      <trkpt lat="47.859939" lon="2.048527">
        <ele>98</ele>
        <time>2025-06-12T17:30:15Z</time>
      </trkpt>
      <trkpt lat="47.860373" lon="2.049118">
        <ele>100</ele>
        <time>2025-06-12T17:31:43Z</time>
      </trkpt>
      <trkpt lat="47.860889" lon="2.0498">
        <ele>99</ele>
        <time>2025-06-12T17:33:02Z</time>
      </trkpt>
      <trkpt lat="47.861436" lon="2.050536">
        <ele>100</ele>
        <time>2025-06-12T17:34:37Z</time>
      </trkpt>
      <trkpt lat="47.861678" lon="2.050946">
        <ele>100</ele>
        <time>2025-06-12T17:35:19Z</time>
      </trkpt>
      <trkpt lat="47.861801" lon="2.051226">
        <ele>101</ele>
        <time>2025-06-12T17:35:55Z</time>
      </trkpt>
      <trkpt lat="47.861953" lon="2.051287">
        <ele>101</ele>
        <time>2025-06-12T17:36:13Z</time>
      </trkpt>
      <trkpt lat="47.862558" lon="2.05216">
        <ele>101</ele>
        <time>2025-06-12T17:37:49Z</time>
      </trkpt>
      <trkpt lat="47.862841" lon="2.052667">
        <ele>103</ele>
        <time>2025-06-12T17:39:00Z</time>
      </trkpt>
      <trkpt lat="47.86283" lon="2.05296">
        <ele>103</ele>
        <time>2025-06-12T17:39:23Z</time>
      </trkpt>
      <trkpt lat="47.862928" lon="2.053201">
        <ele>104</ele>
        <time>2025-06-12T17:39:55Z</time>
      </trkpt>
      <trkpt lat="47.863008" lon="2.053642">
        <ele>102</ele>
        <time>2025-06-12T17:40:30Z</time>
      </trkpt>
      <trkpt lat="47.863255" lon="2.053973">
        <ele>103</ele>
        <time>2025-06-12T17:41:18Z</time>
      </trkpt>
      <trkpt lat="47.86354" lon="2.054386">
        <ele>104</ele>
        <time>2025-06-12T17:42:14Z</time>
      </trkpt>
      <trkpt lat="47.863915" lon="2.054591">
        <ele>104</ele>
        <time>2025-06-12T17:43:00Z</time>
      </trkpt>
      <trkpt lat="47.864876" lon="2.054638">
        <ele>104</ele>
        <time>2025-06-12T17:44:50Z</time>
      </trkpt>
      <trkpt lat="47.865279" lon="2.054789">
        <ele>104</ele>
        <time>2025-06-12T17:45:38Z</time>
      </trkpt>
      <trkpt lat="47.865906" lon="2.055331">
        <ele>104</ele>
        <time>2025-06-12T17:47:01Z</time>
      </trkpt>
      <trkpt lat="47.865465" lon="2.055107">
        <ele>101</ele>
        <time>2025-06-12T17:47:54Z</time>
      </trkpt>
      <trkpt lat="47.865433" lon="2.055281">
        <ele>100</ele>
        <time>2025-06-12T17:48:08Z</time>
      </trkpt>
      <trkpt lat="47.866425" lon="2.056291">
        <ele>100</ele>
        <time>2025-06-12T17:50:26Z</time>
      </trkpt>
      <trkpt lat="47.866893" lon="2.056895">
        <ele>99</ele>
        <time>2025-06-12T17:51:37Z</time>
      </trkpt>
      <trkpt lat="47.867253" lon="2.057447">
        <ele>100</ele>
        <time>2025-06-12T17:52:46Z</time>
      </trkpt>
      <trkpt lat="47.867725" lon="2.057678">
        <ele>101</ele>
        <time>2025-06-12T17:53:53Z</time>
      </trkpt>
      <trkpt lat="47.867946" lon="2.057856">
        <ele>102</ele>
        <time>2025-06-12T17:54:32Z</time>
      </trkpt>
      <trkpt lat="47.868011" lon="2.058117">
        <ele>104</ele>
        <time>2025-06-12T17:55:14Z</time>
      </trkpt>
      <trkpt lat="47.868113" lon="2.058196">
        <ele>104</ele>
        <time>2025-06-12T17:55:27Z</time>
      </trkpt>
      <trkpt lat="47.868277" lon="2.059293">
        <ele>104</ele>
        <time>2025-06-12T17:56:53Z</time>
      </trkpt>
      <trkpt lat="47.868593" lon="2.060415">
        <ele>104</ele>
        <time>2025-06-12T17:58:26Z</time>
      </trkpt>
      <trkpt lat="47.86902" lon="2.061672">
        <ele>104</ele>
        <time>2025-06-12T18:00:14Z</time>
      </trkpt>
      <trkpt lat="47.869519" lon="2.06302">
        <ele>104</ele>
        <time>2025-06-12T18:02:12Z</time>
      </trkpt>
      <trkpt lat="47.870103" lon="2.064098">
        <ele>104</ele>
        <time>2025-06-12T18:03:58Z</time>
      </trkpt>
      <trkpt lat="47.870435" lon="2.064983">
        <ele>104</ele>
        <time>2025-06-12T18:05:16Z</time>
      </trkpt>
      <trkpt lat="47.870965" lon="2.066155">
        <ele>104</ele>
        <time>2025-06-12T18:07:05Z</time>
      </trkpt>
      <trkpt lat="47.871199" lon="2.066606">
        <ele>105</ele>
        <time>2025-06-12T18:07:59Z</time>
      </trkpt>
      <trkpt lat="47.871486" lon="2.067867">
        <ele>104</ele>
        <time>2025-06-12T18:09:41Z</time>
      </trkpt>
      <trkpt lat="47.871911" lon="2.069584">
        <ele>104</ele>
        <time>2025-06-12T18:12:02Z</time>
      </trkpt>
      <trkpt lat="47.872245" lon="2.0713">
        <ele>105</ele>
        <time>2025-06-12T18:14:30Z</time>
      </trkpt>
      <trkpt lat="47.872579" lon="2.072876">
        <ele>104</ele>
        <time>2025-06-12T18:16:37Z</time>
      </trkpt>
      <trkpt lat="47.872805" lon="2.074374">
        <ele>104</ele>
        <time>2025-06-12T18:18:35Z</time>
      </trkpt>
      <trkpt lat="47.872877" lon="2.075077">
        <ele>104</ele>
        <time>2025-06-12T18:19:30Z</time>
      </trkpt>
      <trkpt lat="47.872931" lon="2.075858">
        <ele>105</ele>
        <time>2025-06-12T18:20:41Z</time>
      </trkpt>
      <trkpt lat="47.873401" lon="2.076973">
        <ele>104</ele>
        <time>2025-06-12T18:22:22Z</time>
      </trkpt>
      <trkpt lat="47.87388" lon="2.078088">
        <ele>101</ele>
        <time>2025-06-12T18:24:04Z</time>
      </trkpt>
      <trkpt lat="47.874722" lon="2.080091">
        <ele>103</ele>
        <time>2025-06-12T18:27:26Z</time>
      </trkpt>
      <trkpt lat="47.875218" lon="2.080614">
        <ele>104</ele>
        <time>2025-06-12T18:28:46Z</time>
      </trkpt>
      <trkpt lat="47.875696" lon="2.081033">
        <ele>108</ele>
        <time>2025-06-12T18:30:31Z</time>
      </trkpt>
      <trkpt lat="47.876305" lon="2.081181">
        <ele>112</ele>
        <time>2025-06-12T18:32:23Z</time>
      </trkpt>
      <trkpt lat="47.877077" lon="2.081289">
        <ele>114</ele>
        <time>2025-06-12T18:34:12Z</time>
      </trkpt>
      <trkpt lat="47.87706" lon="2.081044">
        <ele>114</ele>
        <time>2025-06-12T18:34:31Z</time>
      </trkpt>
      <trkpt lat="47.877826" lon="2.075147">
        <ele>112</ele>
        <time>2025-06-12T18:42:12Z</time>
      </trkpt>
      <trkpt lat="47.878181" lon="2.074538">
        <ele>112</ele>
        <time>2025-06-12T18:43:14Z</time>
      </trkpt>
      <trkpt lat="47.878618" lon="2.073772">
        <ele>111</ele>
        <time>2025-06-12T18:44:31Z</time>
      </trkpt>
      <trkpt lat="47.878645" lon="2.073444">
        <ele>109</ele>
        <time>2025-06-12T18:44:56Z</time>
      </trkpt>
      <trkpt lat="47.878564" lon="2.073117">
        <ele>108</ele>
        <time>2025-06-12T18:45:23Z</time>
      </trkpt>
      <trkpt lat="47.878825" lon="2.072618">
        <ele>111</ele>
        <time>2025-06-12T18:46:42Z</time>
      </trkpt>
      <trkpt lat="47.879032" lon="2.072196">
        <ele>112</ele>
        <time>2025-06-12T18:47:32Z</time>
      </trkpt>
      <trkpt lat="47.879144" lon="2.071664">
        <ele>112</ele>
        <time>2025-06-12T18:48:15Z</time>
      </trkpt>
      <trkpt lat="47.879328" lon="2.071237">
        <ele>112</ele>
        <time>2025-06-12T18:48:54Z</time>
      </trkpt>
      <trkpt lat="47.87938" lon="2.070692">
        <ele>110</ele>
        <time>2025-06-12T18:49:36Z</time>
      </trkpt>
      <trkpt lat="47.879567" lon="2.070225">
        <ele>108</ele>
        <time>2025-06-12T18:50:18Z</time>
      </trkpt>
      <trkpt lat="47.87991" lon="2.069556">
        <ele>109</ele>
        <time>2025-06-12T18:51:33Z</time>
      </trkpt>
      <trkpt lat="47.880926" lon="2.067864">
        <ele>113</ele>
        <time>2025-06-12T18:55:09Z</time>
      </trkpt>
      <trkpt lat="47.881551" lon="2.066404">
        <ele>113</ele>
        <time>2025-06-12T18:57:22Z</time>
      </trkpt>
      <trkpt lat="47.881977" lon="2.065473">
        <ele>112</ele>
        <time>2025-06-12T18:58:49Z</time>
      </trkpt>
      <trkpt lat="47.882494" lon="2.063663">
        <ele>111</ele>
        <time>2025-06-12T19:01:20Z</time>
      </trkpt>
      <trkpt lat="47.883045" lon="2.06311">
        <ele>112</ele>
        <time>2025-06-12T19:02:46Z</time>
      </trkpt>
      <trkpt lat="47.883567" lon="2.061561">
        <ele>112</ele>
        <time>2025-06-12T19:04:59Z</time>
      </trkpt>
      <trkpt lat="47.884489" lon="2.062033">
        <ele>113</ele>
        <time>2025-06-12T19:07:01Z</time>
      </trkpt>
      <trkpt lat="47.884605" lon="2.061571">
        <ele>112</ele>
        <time>2025-06-12T19:07:39Z</time>
      </trkpt>
      <trkpt lat="47.885143" lon="2.060295">
        <ele>111</ele>
        <time>2025-06-12T19:09:35Z</time>
      </trkpt>
      <trkpt lat="47.885484" lon="2.059307">
        <ele>111</ele>
        <time>2025-06-12T19:11:00Z</time>
      </trkpt>
      <trkpt lat="47.885684" lon="2.058452">
        <ele>112</ele>
        <time>2025-06-12T19:12:20Z</time>
      </trkpt>
      <trkpt lat="47.885848" lon="2.057597">
        <ele>112</ele>
        <time>2025-06-12T19:13:28Z</time>
      </trkpt>
      <trkpt lat="47.885897" lon="2.056853">
        <ele>113</ele>
        <time>2025-06-12T19:14:36Z</time>
      </trkpt>
      <trkpt lat="47.885896" lon="2.05521">
        <ele>109</ele>
        <time>2025-06-12T19:16:42Z</time>
      </trkpt>
      <trkpt lat="47.886201" lon="2.055054">
        <ele>111</ele>
        <time>2025-06-12T19:17:39Z</time>
      </trkpt>
      <trkpt lat="47.886551" lon="2.054159">
        <ele>113</ele>
        <time>2025-06-12T19:19:19Z</time>
      </trkpt>
      <trkpt lat="47.886769" lon="2.053218">
        <ele>113</ele>
        <time>2025-06-12T19:20:35Z</time>
      </trkpt>
      <trkpt lat="47.88703" lon="2.051533">
        <ele>113</ele>
        <time>2025-06-12T19:22:48Z</time>
      </trkpt>
      <trkpt lat="47.887197" lon="2.050835">
        <ele>113</ele>
        <time>2025-06-12T19:23:45Z</time>
      </trkpt>
      <trkpt lat="47.887319" lon="2.049562">
        <ele>112</ele>
        <time>2025-06-12T19:25:24Z</time>
      </trkpt>
      <trkpt lat="47.887403" lon="2.049226">
        <ele>112</ele>
        <time>2025-06-12T19:25:52Z</time>
      </trkpt>
      <trkpt lat="47.887535" lon="2.04907">
        <ele>112</ele>
        <time>2025-06-12T19:26:11Z</time>
      </trkpt>
      <trkpt lat="47.887667" lon="2.048968">
        <ele>112</ele>
        <time>2025-06-12T19:26:28Z</time>
      </trkpt>
      <trkpt lat="47.888475" lon="2.048904">
        <ele>112</ele>
        <time>2025-06-12T19:28:01Z</time>
      </trkpt>
      <trkpt lat="47.889103" lon="2.049225">
        <ele>112</ele>
        <time>2025-06-12T19:29:17Z</time>
      </trkpt>
      <trkpt lat="47.889498" lon="2.049649">
        <ele>110</ele>
        <time>2025-06-12T19:30:13Z</time>
      </trkpt>
      <trkpt lat="47.89001" lon="2.050394">
        <ele>107</ele>
        <time>2025-06-12T19:31:35Z</time>
      </trkpt>
      <trkpt lat="47.890109" lon="2.048078">
        <ele>106</ele>
        <time>2025-06-12T19:34:33Z</time>
      </trkpt>
      <trkpt lat="47.890306" lon="2.045823">
        <ele>103</ele>
        <time>2025-06-12T19:37:28Z</time>
      </trkpt>
      <trkpt lat="47.89041" lon="2.045834">
        <ele>101</ele>
        <time>2025-06-12T19:37:40Z</time>
      </trkpt>
      <trkpt lat="47.890479" lon="2.046126">
        <ele>100</ele>
        <time>2025-06-12T19:38:04Z</time>
      </trkpt>
      <trkpt lat="47.890621" lon="2.046262">
        <ele>98</ele>
        <time>2025-06-12T19:38:23Z</time>
      </trkpt>
      <trkpt lat="47.890591" lon="2.046809">
        <ele>98</ele>
        <time>2025-06-12T19:39:05Z</time>
      </trkpt>
      <trkpt lat="47.890526" lon="2.047173">
        <ele>98</ele>
        <time>2025-06-12T19:39:34Z</time>
      </trkpt>
      <trkpt lat="47.890583" lon="2.047574">
        <ele>98</ele>
        <time>2025-06-12T19:40:05Z</time>
      </trkpt>
      <trkpt lat="47.890677" lon="2.047975">
        <ele>98</ele>
        <time>2025-06-12T19:40:38Z</time>
      </trkpt>
      <trkpt lat="47.890728" lon="2.048883">
        <ele>98</ele>
        <time>2025-06-12T19:41:48Z</time>
      </trkpt>
      <trkpt lat="47.890815" lon="2.049191">
        <ele>98</ele>
        <time>2025-06-12T19:42:14Z</time>
      </trkpt>
      <trkpt lat="47.891086" lon="2.049251">
        <ele>98</ele>
        <time>2025-06-12T19:42:45Z</time>
      </trkpt>
      <trkpt lat="47.89108" lon="2.049589">
        <ele>98</ele>
        <time>2025-06-12T19:43:11Z</time>
      </trkpt>
      <trkpt lat="47.891256" lon="2.049902">
        <ele>98</ele>
        <time>2025-06-12T19:43:42Z</time>
      </trkpt>
      <trkpt lat="47.891357" lon="2.050306">
        <ele>98</ele>
        <time>2025-06-12T19:44:15Z</time>
      </trkpt>
      <trkpt lat="47.891567" lon="2.05045">
        <ele>98</ele>
        <time>2025-06-12T19:44:41Z</time>
      </trkpt>
      <trkpt lat="47.891676" lon="2.051098">
        <ele>99</ele>
        <time>2025-06-12T19:45:43Z</time>
      </trkpt>
      <trkpt lat="47.891479" lon="2.051292">
        <ele>99</ele>
        <time>2025-06-12T19:46:10Z</time>
      </trkpt>
      <trkpt lat="47.891336" lon="2.05159">
        <ele>100</ele>
        <time>2025-06-12T19:46:48Z</time>
      </trkpt>
      <trkpt lat="47.891173" lon="2.051934">
        <ele>101</ele>
        <time>2025-06-12T19:47:31Z</time>
      </trkpt>
      <trkpt lat="47.891254" lon="2.052419">
        <ele>101</ele>
        <time>2025-06-12T19:48:09Z</time>
      </trkpt>
      <trkpt lat="47.891037" lon="2.052721">
        <ele>102</ele>
        <time>2025-06-12T19:48:53Z</time>
      </trkpt>
      <trkpt lat="47.891502" lon="2.053522">
        <ele>100</ele>
        <time>2025-06-12T19:50:14Z</time>
      </trkpt>
      <trkpt lat="47.891866" lon="2.053047">
        <ele>101</ele>
        <time>2025-06-12T19:51:20Z</time>
      </trkpt>
      <trkpt lat="47.892247" lon="2.052545">
        <ele>102</ele>
        <time>2025-06-12T19:52:28Z</time>
      </trkpt>
      <trkpt lat="47.892107" lon="2.05222">
        <ele>100</ele>
        <time>2025-06-12T19:52:58Z</time>
      </trkpt>
      <trkpt lat="47.892074" lon="2.051718">
        <ele>99</ele>
        <time>2025-06-12T19:53:37Z</time>
      </trkpt>
      <trkpt lat="47.892076" lon="2.050981">
        <ele>99</ele>
        <time>2025-06-12T19:54:34Z</time>
      </trkpt>
      <trkpt lat="47.892099" lon="2.048489">
        <ele>99</ele>
        <time>2025-06-12T19:57:45Z</time>
      </trkpt>
      <trkpt lat="47.892581" lon="2.044952">
        <ele>98</ele>
        <time>2025-06-12T20:02:22Z</time>
      </trkpt>
      <trkpt lat="47.892613" lon="2.044104">
        <ele>98</ele>
        <time>2025-06-12T20:03:27Z</time>
      </trkpt>
      <trkpt lat="47.892472" lon="2.043527">
        <ele>98</ele>
        <time>2025-06-12T20:04:14Z</time>
      </trkpt>
      <trkpt lat="47.892277" lon="2.042949">
        <ele>99</ele>
        <time>2025-06-12T20:05:14Z</time>
      </trkpt>
      <trkpt lat="47.892027" lon="2.041212">
        <ele>99</ele>
        <time>2025-06-12T20:07:30Z</time>
      </trkpt>
      <trkpt lat="47.891848" lon="2.03956">
        <ele>99</ele>
        <time>2025-06-12T20:09:38Z</time>
      </trkpt>
      <trkpt lat="47.891597" lon="2.037909">
        <ele>99</ele>
        <time>2025-06-12T20:11:48Z</time>
      </trkpt>
      <trkpt lat="47.891657" lon="2.035897">
        <ele>98</ele>
        <time>2025-06-12T20:14:23Z</time>
      </trkpt>
      <trkpt lat="47.891503" lon="2.034566">
        <ele>98</ele>
        <time>2025-06-12T20:16:07Z</time>
      </trkpt>
      <trkpt lat="47.890721" lon="2.029163">
        <ele>98</ele>
        <time>2025-06-12T20:23:11Z</time>
      </trkpt>
      <trkpt lat="47.890699" lon="2.02806">
        <ele>98</ele>
        <time>2025-06-12T20:24:36Z</time>
      </trkpt>
      <trkpt lat="47.890667" lon="2.026787">
        <ele>98</ele>
        <time>2025-06-12T20:26:14Z</time>
      </trkpt>
      <trkpt lat="47.890554" lon="2.025828">
        <ele>99</ele>
        <time>2025-06-12T20:27:39Z</time>
      </trkpt>
      <trkpt lat="47.89037" lon="2.024425">
        <ele>99</ele>
        <time>2025-06-12T20:29:29Z</time>
      </trkpt>
      <trkpt lat="47.891241" lon="2.021567">
        <ele>99</ele>
        <time>2025-06-12T20:33:30Z</time>
      </trkpt>
      <trkpt lat="47.891501" lon="2.020562">
        <ele>98</ele>
        <time>2025-06-12T20:34:53Z</time>
      </trkpt>
      <trkpt lat="47.891843" lon="2.018322">
        <ele>100</ele>
        <time>2025-06-12T20:38:10Z</time>
      </trkpt>
      <trkpt lat="47.89197" lon="2.017307">
        <ele>100</ele>
        <time>2025-06-12T20:39:29Z</time>
      </trkpt>
      <trkpt lat="47.89224" lon="2.015795">
        <ele>99</ele>
        <time>2025-06-12T20:41:29Z</time>
      </trkpt>
      <trkpt lat="47.892888" lon="2.012153">
        <ele>100</ele>
        <time>2025-06-12T20:46:29Z</time>
      </trkpt>
      <trkpt lat="47.8935" lon="2.009241">
        <ele>98</ele>
        <time>2025-06-12T20:50:23Z</time>
      </trkpt>
      <trkpt lat="47.893752" lon="2.006218">
        <ele>97</ele>
        <time>2025-06-12T20:54:17Z</time>
      </trkpt>
      <trkpt lat="47.893915" lon="2.004511">
        <ele>98</ele>
        <time>2025-06-12T20:56:40Z</time>
      </trkpt>
      <trkpt lat="47.89405" lon="2.002987">
        <ele>99</ele>
        <time>2025-06-12T20:58:48Z</time>
      </trkpt>
      <trkpt lat="47.894194" lon="2.002444">
        <ele>99</ele>
        <time>2025-06-12T20:59:33Z</time>
      </trkpt>
      <trkpt lat="47.894446" lon="2.001915">
        <ele>100</ele>
        <time>2025-06-12T21:00:33Z</time>
      </trkpt>
      <trkpt lat="47.89466" lon="2.001552">
        <ele>100</ele>
        <time>2025-06-12T21:01:10Z</time>
      </trkpt>
      <trkpt lat="47.895107" lon="2.000876">
        <ele>101</ele>
        <time>2025-06-12T21:02:33Z</time>
      </trkpt>
      <trkpt lat="47.895312" lon="2.001108">
        <ele>101</ele>
        <time>2025-06-12T21:03:02Z</time>
      </trkpt>
      <trkpt lat="47.895655" lon="2.000542">
        <ele>99</ele>
        <time>2025-06-12T21:04:01Z</time>
      </trkpt>
      <trkpt lat="47.897156" lon="1.996567">
        <ele>99</ele>
        <time>2025-06-12T21:09:51Z</time>
      </trkpt>
      <trkpt lat="47.897417" lon="1.995658">
        <ele>99</ele>
        <time>2025-06-12T21:11:07Z</time>
      </trkpt>
      <trkpt lat="47.897746" lon="1.994566">
        <ele>99</ele>
        <time>2025-06-12T21:12:39Z</time>
      </trkpt>
      <trkpt lat="47.897904" lon="1.993735">
        <ele>99</ele>
        <time>2025-06-12T21:13:45Z</time>
      </trkpt>
      <trkpt lat="47.898529" lon="1.989497">
        <ele>98</ele>
        <time>2025-06-12T21:19:18Z</time>
      </trkpt>
      <trkpt lat="47.898634" lon="1.988917">
        <ele>99</ele>
        <time>2025-06-12T21:20:14Z</time>
      </trkpt>
      <trkpt lat="47.898883" lon="1.988181">
        <ele>99</ele>
        <time>2025-06-12T21:21:17Z</time>
      </trkpt>
      <trkpt lat="47.899623" lon="1.986433">
        <ele>99</ele>
        <time>2025-06-12T21:23:56Z</time>
      </trkpt>
      <trkpt lat="47.900521" lon="1.984327">
        <ele>99</ele>
        <time>2025-06-12T21:27:08Z</time>
      </trkpt>
      <trkpt lat="47.9007" lon="1.983943">
        <ele>98</ele>
        <time>2025-06-12T21:27:44Z</time>
      </trkpt>
    </trkseg>
  </trk>
</gpx>